Time;durP1;ratioP1;P1;durP2;ratioP2;P2;SDS_P1;SDS_P2;PMS_P1;PMS_P2;Temp;Humidity;BMP_temperature;BMP_pressure;BME280_temperature;BME280_humidity;BME280_pressure;Samples;Min_cycle;Max_cycle;Signal;HPM_P1;HPM_P2
2022/08/14 00:00:47;;;;;;;7.93;5.68;;;18.90;75.00;;;;;;5051837;28;20064;-61
2022/08/14 00:03:30;;;;;;;7.57;5.88;;;18.90;75.00;;;;;;5052190;28;20151;-61
2022/08/14 00:05:58;;;;;;;8.82;6.38;;;18.90;75.50;;;;;;5052166;28;20032;-60
2022/08/14 00:08:24;;;;;;;6.85;5.53;;;18.90;75.30;;;;;;5052036;28;20565;-62
2022/08/14 00:10:51;;;;;;;7.32;6.20;;;18.90;75.20;;;;;;5052706;28;20095;-66
2022/08/14 00:13:18;;;;;;;8.15;6.38;;;18.90;75.50;;;;;;5052391;28;20074;-64
2022/08/14 00:15:48;;;;;;;8.35;6.40;;;18.90;75.70;;;;;;5051868;28;20096;-62
2022/08/14 00:18:18;;;;;;;6.93;5.72;;;18.80;75.90;;;;;;5051942;28;20162;-63
2022/08/14 00:20:44;;;;;;;8.38;6.30;;;18.80;75.70;;;;;;5051517;28;20025;-65
2022/08/14 00:23:11;;;;;;;10.52;6.57;;;18.80;75.80;;;;;;5052319;28;20082;-62
2022/08/14 00:25:37;;;;;;;6.82;5.90;;;18.70;76.10;;;;;;5050902;28;20546;-62
2022/08/14 00:28:06;;;;;;;7.68;5.97;;;18.70;76.20;;;;;;5051175;28;20055;-66
2022/08/14 00:30:32;;;;;;;8.02;6.32;;;18.60;76.50;;;;;;5052305;28;20021;-63
2022/08/14 00:32:58;;;;;;;7.30;5.75;;;18.60;76.70;;;;;;5051823;28;20083;-64
2022/08/14 00:35:23;;;;;;;7.13;6.20;;;18.60;77.00;;;;;;5051596;28;20048;-62
2022/08/14 00:37:51;;;;;;;8.07;6.55;;;18.60;77.10;;;;;;5051868;28;20033;-62
2022/08/14 00:40:18;;;;;;;8.32;6.50;;;18.50;77.20;;;;;;5050261;28;20060;-61
2022/08/14 00:42:44;;;;;;;8.13;6.20;;;18.50;77.50;;;;;;5051572;28;20017;-60
2022/08/14 00:45:11;;;;;;;8.95;6.43;;;18.40;77.70;;;;;;5051512;28;20032;-62
2022/08/14 00:47:38;;;;;;;7.63;6.47;;;18.40;77.80;;;;;;5050399;28;20397;-63
2022/08/14 00:50:06;;;;;;;7.78;6.03;;;18.40;77.80;;;;;;5050614;28;20064;-61
2022/08/14 00:52:33;;;;;;;8.35;6.13;;;18.40;77.70;;;;;;5051790;28;20032;-62
2022/08/14 00:54:59;;;;;;;7.40;6.05;;;18.30;77.90;;;;;;5051417;28;20538;-62
2022/08/14 00:57:27;;;;;;;8.32;6.50;;;18.30;78.30;;;;;;5051148;28;20031;-60
2022/08/14 00:59:52;;;;;;;8.23;6.32;;;18.20;78.40;;;;;;5051351;28;20473;-60
2022/08/14 01:02:23;;;;;;;7.35;6.03;;;18.20;78.80;;;;;;5033776;28;20124;-63
2022/08/14 01:04:53;;;;;;;7.00;5.47;;;18.20;78.90;;;;;;5050922;28;20393;-61
2022/08/14 01:07:20;;;;;;;7.17;5.53;;;18.20;78.80;;;;;;5050165;28;20439;-62
2022/08/14 01:09:51;;;;;;;8.45;6.40;;;18.30;78.70;;;;;;5051709;28;20066;-61
2022/08/14 01:12:17;;;;;;;8.43;6.35;;;18.30;78.90;;;;;;5051121;28;20028;-61
2022/08/14 01:14:43;;;;;;;8.88;6.93;;;18.30;78.70;;;;;;5050161;28;20041;-61
2022/08/14 01:17:10;;;;;;;10.63;6.95;;;18.20;78.70;;;;;;5050390;28;20036;-60
2022/08/14 01:22:20;;;;;;;8.75;6.47;;;18.00;78.90;;;;;;5051111;28;20106;-61
2022/08/14 01:24:46;;;;;;;9.45;6.78;;;17.90;79.50;;;;;;5050789;28;20458;-65
2022/08/14 01:27:19;;;;;;;8.50;6.78;;;17.80;80.00;;;;;;5049496;28;20154;-60
2022/08/14 01:29:50;;;;;;;9.50;6.68;;;17.80;80.50;;;;;;5050687;28;20064;-63
2022/08/14 01:32:20;;;;;;;10.00;7.13;;;17.70;80.80;;;;;;5050006;28;20704;-60
2022/08/14 01:34:54;;;;;;;8.93;6.93;;;17.70;81.10;;;;;;5050415;28;20478;-64
2022/08/14 01:37:24;;;;;;;9.55;7.22;;;17.70;81.40;;;;;;5050500;28;20021;-60
2022/08/14 01:39:51;;;;;;;9.73;6.95;;;17.70;81.50;;;;;;5049413;28;20385;-62
2022/08/14 01:42:17;;;;;;;7.72;6.15;;;17.60;81.50;;;;;;5049424;28;20025;-61
2022/08/14 01:44:43;;;;;;;8.52;6.65;;;17.50;81.60;;;;;;5049030;28;20025;-62
2022/08/14 01:47:12;;;;;;;9.77;7.00;;;17.50;81.80;;;;;;5047924;28;20047;-61
2022/08/14 01:49:39;;;;;;;11.82;7.18;;;17.40;82.40;;;;;;5049123;28;20481;-66
2022/08/14 01:52:06;;;;;;;12.27;7.50;;;17.30;82.80;;;;;;5048653;28;20025;-66
2022/08/14 01:54:32;;;;;;;9.77;6.97;;;17.20;83.00;;;;;;5049480;28;20580;-62
2022/08/14 01:56:58;;;;;;;8.93;6.95;;;17.20;83.40;;;;;;5049232;28;20099;-62
2022/08/14 01:59:32;;;;;;;9.07;7.00;;;17.30;83.80;;;;;;5049819;28;20029;-64
2022/08/14 02:02:11;;;;;;;9.85;7.20;;;17.20;83.80;;;;;;5050035;28;20025;-64
2022/08/14 02:04:37;;;;;;;12.35;7.47;;;17.20;84.20;;;;;;5050284;28;20687;-61
2022/08/14 02:07:04;;;;;;;11.63;7.20;;;17.10;84.30;;;;;;5049117;28;20495;-65
2022/08/14 02:09:34;;;;;;;9.32;8.02;;;17.10;84.70;;;;;;5050111;28;20056;-63
2022/08/14 02:12:01;;;;;;;9.40;7.38;;;17.00;85.00;;;;;;5049507;28;20028;-62
2022/08/14 02:14:27;;;;;;;10.00;7.97;;;17.00;85.30;;;;;;5049579;28;20480;-62
2022/08/14 02:16:53;;;;;;;11.27;7.60;;;16.90;85.40;;;;;;5049311;28;20194;-64
2022/08/14 02:19:22;;;;;;;8.95;7.13;;;16.80;85.60;;;;;;5048583;28;20028;-63
2022/08/14 02:21:50;;;;;;;10.77;7.68;;;16.80;85.90;;;;;;5049213;28;20029;-63
2022/08/14 02:24:22;;;;;;;10.23;7.82;;;16.70;86.40;;;;;;5049557;28;20021;-66
2022/08/14 02:26:49;;;;;;;10.25;8.00;;;16.70;86.50;;;;;;5049875;28;20695;-61
2022/08/14 02:29:20;;;;;;;9.88;7.75;;;16.70;86.60;;;;;;5049158;28;20017;-63
2022/08/14 02:31:48;;;;;;;;;;;16.60;86.80;;;;;;5049871;28;20044;-63
2022/08/14 02:34:20;;;;;;;11.15;7.20;;;16.60;87.60;;;;;;5049210;28;19919;-66
2022/08/14 02:36:50;;;;;;;10.48;7.97;;;16.50;87.30;;;;;;5049365;28;20018;-65
2022/08/14 02:39:15;;;;;;;10.80;8.25;;;16.50;88.00;;;;;;5047927;28;20035;-62
2022/08/14 02:41:41;;;;;;;11.20;8.38;;;16.50;88.20;;;;;;5049120;28;20033;-62
2022/08/14 02:44:10;;;;;;;12.05;8.77;;;16.50;88.20;;;;;;5049283;28;20400;-64
2022/08/14 02:46:37;;;;;;;10.57;7.78;;;16.40;88.50;;;;;;5050050;28;20079;-64
2022/08/14 02:49:05;;;;;;;10.68;8.02;;;16.40;88.60;;;;;;5048393;28;20024;-60
2022/08/14 02:51:32;;;;;;;10.48;7.78;;;16.40;88.80;;;;;;5049863;28;20029;-62
2022/08/14 02:54:00;;;;;;;10.60;8.02;;;16.40;88.70;;;;;;5049213;28;20059;-64
2022/08/14 02:56:26;;;;;;;13.43;8.32;;;16.30;88.70;;;;;;5049318;28;20022;-65
2022/08/14 02:58:55;;;;;;;12.23;7.82;;;16.30;89.00;;;;;;5049919;28;20055;-60
2022/08/14 03:01:22;;;;;;;10.93;7.53;;;16.20;89.40;;;;;;5049562;28;20037;-64
2022/08/14 03:03:49;;;;;;;12.43;8.43;;;16.20;89.60;;;;;;5049097;28;20013;-63
2022/08/14 03:06:19;;;;;;;12.50;8.05;;;16.30;89.90;;;;;;5049464;28;20021;-63
2022/08/14 03:08:45;;;;;;;10.65;8.07;;;16.20;90.00;;;;;;5049822;28;20049;-61
2022/08/14 03:11:13;;;;;;;11.30;7.57;;;16.30;90.00;;;;;;5048777;28;20063;-61
2022/08/14 03:13:44;;;;;;;10.23;7.60;;;16.20;90.00;;;;;;5049744;28;20045;-65
2022/08/14 03:16:13;;;;;;;11.57;8.20;;;16.20;90.10;;;;;;5049313;28;20039;-66
2022/08/14 03:18:43;;;;;;;10.88;8.18;;;16.20;90.10;;;;;;5048014;28;20107;-62
2022/08/14 03:21:12;;;;;;;11.10;8.50;;;16.20;90.30;;;;;;5049265;28;20033;-64
2022/08/14 03:23:39;;;;;;;13.18;7.25;;;16.20;90.30;;;;;;5047871;28;20029;-61
2022/08/14 03:26:10;;;;;;;12.68;8.82;;;16.20;90.20;;;;;;5048593;28;20033;-61
2022/08/14 03:28:37;;;;;;;;;;;16.20;90.30;;;;;;5049981;28;20029;-64
2022/08/14 03:31:04;;;;;;;11.32;8.30;;;16.20;90.30;;;;;;5052044;28;19909;-62
2022/08/14 03:33:30;;;;;;;11.95;8.60;;;16.10;90.40;;;;;;5053363;28;20067;-64
2022/08/14 03:35:55;;;;;;;10.80;7.63;;;16.10;90.40;;;;;;5052946;28;20499;-61
2022/08/14 03:38:21;;;;;;;10.15;8.13;;;16.10;90.50;;;;;;5052409;28;20048;-61
2022/08/14 03:40:47;;;;;;;11.85;8.98;;;16.00;90.60;;;;;;5051278;28;20064;-64
2022/08/14 03:43:12;;;;;;;12.35;8.77;;;16.00;90.80;;;;;;5052896;28;20469;-64
2022/08/14 03:45:39;;;;;;;13.52;8.23;;;16.00;90.90;;;;;;5052520;28;20031;-65
2022/08/14 03:48:19;;;;;;;10.32;7.97;;;16.00;90.90;;;;;;5052253;28;20028;-63
2022/08/14 03:50:46;;;;;;;11.87;8.17;;;16.00;90.90;;;;;;5052410;28;20122;-60
2022/08/14 03:53:13;;;;;;;12.63;8.82;;;16.00;90.90;;;;;;5050625;28;20070;-62
2022/08/14 03:55:40;;;;;;;11.80;8.38;;;15.90;91.00;;;;;;5052869;28;20025;-65
2022/08/14 03:58:06;;;;;;;13.73;9.20;;;15.90;91.10;;;;;;5052022;28;20116;-62
2022/08/14 04:00:34;;;;;;;12.05;8.80;;;15.90;91.40;;;;;;5046798;28;20043;-61
2022/08/14 04:03:01;;;;;;;11.45;8.70;;;15.90;91.40;;;;;;5044405;28;20167;-64
2022/08/14 04:05:27;;;;;;;11.82;8.80;;;15.90;91.60;;;;;;5032677;28;20021;-61
2022/08/14 04:07:53;;;;;;;12.23;9.00;;;15.90;91.80;;;;;;5031484;28;20466;-59
2022/08/14 04:10:19;;;;;;;13.05;9.98;;;15.90;91.80;;;;;;5032598;28;20144;-60
2022/08/14 04:12:44;;;;;;;12.75;9.25;;;15.90;91.90;;;;;;5030398;28;20036;-60
2022/08/14 04:15:10;;;;;;;12.23;8.90;;;16.00;91.80;;;;;;5032162;28;20028;-63
2022/08/14 04:17:36;;;;;;;11.32;8.82;;;15.90;91.70;;;;;;5031119;28;20054;-64
2022/08/14 04:20:05;;;;;;;13.27;9.80;;;15.90;91.80;;;;;;5031452;28;20760;-62
2022/08/14 04:22:32;;;;;;;13.18;8.90;;;15.80;91.90;;;;;;5031115;28;20029;-61
2022/08/14 04:25:00;;;;;;;14.95;10.32;;;15.80;92.00;;;;;;5031657;28;20386;-60
2022/08/14 04:27:26;;;;;;;10.43;8.57;;;15.80;92.00;;;;;;5031973;28;20028;-62
2022/08/14 04:29:52;;;;;;;11.95;9.63;;;15.80;92.10;;;;;;5031800;28;20419;-60
2022/08/14 04:32:21;;;;;;;13.95;10.55;;;15.80;92.20;;;;;;5048315;28;20034;-63
2022/08/14 04:34:47;;;;;;;13.32;8.90;;;15.70;92.40;;;;;;5050980;28;20029;-62
2022/08/14 04:45:36;;;;;;;13.13;8.80;;;15.70;92.80;;;;;;5052309;28;20478;-63
2022/08/14 04:48:14;;;;;;;12.52;8.73;;;15.70;92.70;;;;;;5050471;28;20031;-65
2022/08/14 04:50:49;;;;;;;15.90;10.70;;;15.70;92.60;;;;;;5051573;28;20100;-61
2022/08/14 04:53:18;;;;;;;16.70;11.18;;;15.70;92.90;;;;;;5051300;28;20024;-64
2022/08/14 04:55:48;;;;;;;12.57;9.63;;;15.70;92.90;;;;;;5051246;28;20021;-61
2022/08/14 04:58:16;;;;;;;13.68;9.60;;;15.70;93.10;;;;;;5029763;28;20033;-63
2022/08/14 05:00:43;;;;;;;15.32;10.13;;;15.70;93.20;;;;;;5040692;28;20035;-65
2022/08/14 05:03:09;;;;;;;13.70;9.73;;;15.70;93.20;;;;;;5050982;28;20067;-63
2022/08/14 05:05:35;;;;;;;13.52;10.32;;;15.70;93.20;;;;;;5051866;28;20028;-65
2022/08/14 05:08:13;;;;;;;16.20;9.35;;;15.80;93.20;;;;;;5051295;28;20017;-64
2022/08/14 05:10:42;;;;;;;12.18;9.05;;;15.80;93.20;;;;;;5051137;28;20025;-62
2022/08/14 05:13:08;;;;;;;13.38;9.95;;;15.90;93.30;;;;;;5050059;28;20374;-60
2022/08/14 05:15:36;;;;;;;13.10;9.88;;;15.90;93.30;;;;;;5051394;28;20075;-64
2022/08/14 05:18:13;;;;;;;13.55;9.82;;;15.90;93.50;;;;;;5050274;28;20021;-64
2022/08/14 05:20:42;;;;;;;14.35;9.68;;;16.00;93.60;;;;;;5051382;28;20036;-63
2022/08/14 05:23:09;;;;;;;14.18;10.55;;;16.10;93.50;;;;;;5048997;28;20029;-65
2022/08/14 05:25:36;;;;;;;13.93;10.02;;;16.10;93.50;;;;;;5051645;28;20124;-65
2022/08/14 05:28:06;;;;;;;16.48;10.10;;;16.20;93.50;;;;;;5050516;28;20045;-59
2022/08/14 05:30:33;;;;;;;15.20;9.93;;;16.30;93.40;;;;;;5050688;28;20060;-62
2022/08/14 05:33:00;;;;;;;13.63;10.15;;;16.40;93.40;;;;;;5050536;28;20099;-61
2022/08/14 05:35:26;;;;;;;13.38;10.07;;;16.50;93.30;;;;;;5050972;28;20104;-65
2022/08/14 05:37:52;;;;;;;14.68;9.80;;;16.60;93.20;;;;;;5049940;28;20017;-61
2022/08/14 05:40:18;;;;;;;13.88;9.77;;;16.70;93.30;;;;;;5050374;28;20048;-64
2022/08/14 05:42:44;;;;;;;15.45;10.02;;;16.70;93.40;;;;;;5051070;28;20029;-63
2022/08/14 05:45:12;;;;;;;15.88;10.63;;;16.80;93.70;;;;;;5049919;28;20025;-61
2022/08/14 05:47:39;;;;;;;15.60;10.05;;;16.90;93.50;;;;;;5050873;28;20473;-64
2022/08/14 05:50:08;;;;;;;14.45;9.95;;;17.00;93.40;;;;;;5050422;28;20125;-64
2022/08/14 05:52:33;;;;;;;12.57;8.50;;;17.20;93.30;;;;;;5049339;28;20032;-60
2022/08/14 05:54:59;;;;;;;11.57;8.65;;;17.30;93.00;;;;;;5050283;28;20017;-59
2022/08/14 05:57:25;;;;;;;11.90;8.65;;;17.50;92.70;;;;;;5050605;28;20162;-56
2022/08/14 05:59:51;;;;;;;12.15;8.60;;;17.60;92.40;;;;;;5048654;28;20025;-57
2022/08/14 06:02:18;;;;;;;12.32;8.85;;;17.80;92.10;;;;;;5048820;28;20040;-64
2022/08/14 06:04:47;;;;;;;13.40;9.27;;;17.90;91.90;;;;;;5050689;28;20021;-60
2022/08/14 06:07:13;;;;;;;12.93;8.88;;;18.00;91.60;;;;;;5049356;28;20893;-59
2022/08/14 06:09:39;;;;;;;14.82;9.13;;;18.20;91.50;;;;;;5048947;28;20054;-61
2022/08/14 06:12:06;;;;;;;13.55;9.27;;;18.40;91.30;;;;;;5048781;28;20044;-60
2022/08/14 06:14:32;;;;;;;17.55;9.55;;;18.50;91.10;;;;;;5032141;28;20013;-64
2022/08/14 06:16:58;;;;;;;13.82;9.20;;;18.60;91.00;;;;;;5046485;28;20116;-60
2022/08/14 06:19:23;;;;;;;13.60;9.65;;;18.80;90.80;;;;;;5047851;28;20163;-60
2022/08/14 06:21:49;;;;;;;13.07;9.43;;;18.90;90.70;;;;;;5035045;28;20038;-59
2022/08/14 06:24:15;;;;;;;15.07;10.75;;;19.00;90.50;;;;;;5046692;28;20160;-59
2022/08/14 06:26:40;;;;;;;15.75;10.82;;;19.10;90.70;;;;;;5048991;28;20051;-59
2022/08/14 06:29:06;;;;;;;15.85;10.65;;;19.20;90.60;;;;;;5049610;28;20028;-60
2022/08/14 06:31:32;;;;;;;14.95;10.55;;;19.30;90.50;;;;;;5043961;28;20025;-60
2022/08/14 06:33:58;;;;;;;13.32;9.40;;;19.40;90.30;;;;;;5028516;28;20381;-60
2022/08/14 06:36:23;;;;;;;14.40;10.55;;;19.50;90.20;;;;;;5029363;28;20014;-60
2022/08/14 06:38:51;;;;;;;16.77;11.30;;;19.60;90.30;;;;;;5029289;28;20043;-60
2022/08/14 06:41:17;;;;;;;12.88;9.48;;;19.70;90.30;;;;;;5027938;28;20120;-60
2022/08/14 06:43:42;;;;;;;14.93;10.98;;;19.80;90.10;;;;;;5046558;28;20108;-60
2022/08/14 06:46:08;;;;;;;16.77;11.50;;;19.90;90.10;;;;;;5048758;28;20097;-60
2022/08/14 06:48:34;;;;;;;15.45;10.60;;;20.00;90.00;;;;;;5048408;28;20388;-60
2022/08/14 06:51:00;;;;;;;16.50;11.55;;;20.00;89.60;;;;;;5048455;28;20033;-60
2022/08/14 06:53:25;;;;;;;16.63;10.57;;;20.10;89.70;;;;;;5047879;28;20048;-59
2022/08/14 06:55:51;;;;;;;14.48;10.70;;;20.20;89.20;;;;;;5048553;28;20044;-59
2022/08/14 06:58:17;;;;;;;16.98;10.65;;;20.30;89.60;;;;;;5048613;28;20343;-59
2022/08/14 07:05:44;;;;;;;15.77;10.88;;;20.40;89.30;;;;;;5048944;28;20037;-59
2022/08/14 07:06:14;;;;;;;15.13;10.43;;;20.60;88.70;;;;;;5052918;28;20116;-60
2022/08/14 07:08:42;;;;;;;14.60;11.07;;;20.70;88.30;;;;;;5052164;28;20107;-60
2022/08/14 07:11:08;;;;;;;13.55;9.88;;;20.80;88.00;;;;;;5050529;28;20087;-60
2022/08/14 07:13:33;;;;;;;14.57;10.23;;;20.90;87.70;;;;;;5052760;28;20029;-64
2022/08/14 07:15:59;;;;;;;13.75;10.23;;;21.00;87.30;;;;;;5050801;28;20449;-61
2022/08/14 07:18:27;;;;;;;11.73;9.15;;;21.10;87.50;;;;;;5051697;28;20009;-62
2022/08/14 07:20:53;;;;;;;13.73;10.07;;;21.20;86.50;;;;;;5052454;28;20063;-61
2022/08/14 07:23:22;;;;;;;16.13;10.18;;;21.30;86.10;;;;;;5048494;28;20351;-61
2022/08/14 07:25:49;;;;;;;12.25;8.60;;;21.40;85.70;;;;;;5047137;28;20079;-61
2022/08/14 07:28:18;;;;;;;17.50;10.55;;;21.50;85.30;;;;;;5051715;28;20516;-61
2022/08/14 07:30:44;;;;;;;15.35;10.15;;;21.60;84.90;;;;;;5051986;28;20446;-65
2022/08/14 07:33:11;;;;;;;12.32;9.48;;;21.80;84.30;;;;;;5052334;28;20434;-63
2022/08/14 07:35:39;;;;;;;13.10;9.85;;;21.90;83.60;;;;;;5047355;28;20020;-62
2022/08/14 07:38:06;;;;;;;12.68;9.48;;;22.10;83.60;;;;;;5046446;28;20426;-63
2022/08/14 07:40:33;;;;;;;11.05;8.40;;;22.20;83.10;;;;;;5051895;28;20064;-60
2022/08/14 07:42:59;;;;;;;11.48;8.18;;;22.30;82.30;;;;;;5051363;28;20021;-61
2022/08/14 07:45:25;;;;;;;16.10;9.00;;;22.50;81.90;;;;;;5047845;28;20083;-64
2022/08/14 07:47:51;;;;;;;13.10;9.55;;;22.60;81.40;;;;;;5050954;28;20026;-62
2022/08/14 07:50:19;;;;;;;12.00;8.60;;;22.70;80.50;;;;;;5040100;28;20060;-60
2022/08/14 07:52:46;;;;;;;11.73;8.77;;;22.80;79.80;;;;;;5045576;28;20598;-61
2022/08/14 07:55:14;;;;;;;10.68;8.07;;;22.90;79.40;;;;;;5051391;28;20025;-61
2022/08/14 07:57:43;;;;;;;10.02;7.85;;;23.00;78.60;;;;;;5049748;28;20025;-60
2022/08/14 08:00:12;;;;;;;10.98;8.32;;;23.10;78.10;;;;;;5050032;28;20036;-60
2022/08/14 08:02:44;;;;;;;9.88;7.13;;;23.20;77.60;;;;;;5049854;28;20434;-61
2022/08/14 08:05:12;;;;;;;12.13;8.20;;;23.30;77.90;;;;;;5048875;28;20025;-60
2022/08/14 08:07:39;;;;;;;10.75;7.75;;;23.50;76.30;;;;;;5050263;28;20488;-60
2022/08/14 08:10:32;;;;;;;10.43;8.05;;;23.60;76.40;;;;;;5050040;28;20060;-60
2022/08/14 08:13:04;;;;;;;11.43;7.95;;;23.70;75.50;;;;;;5050473;28;20017;-60
2022/08/14 08:15:32;;;;;;;9.77;7.82;;;23.80;75.00;;;;;;5040977;28;20033;-62
2022/08/14 08:18:03;;;;;;;8.75;7.20;;;23.90;73.50;;;;;;5046061;28;20110;-61
2022/08/14 08:20:30;;;;;;;9.45;6.80;;;24.00;73.70;;;;;;5046489;28;20433;-63
2022/08/14 08:22:57;;;;;;;10.63;7.72;;;24.10;73.60;;;;;;5049780;28;20021;-61
2022/08/14 08:25:31;;;;;;;10.32;7.35;;;24.20;73.30;;;;;;5051270;28;20029;-60
2022/08/14 08:28:15;;;;;;;11.00;8.00;;;24.30;72.80;;;;;;5050419;28;20013;-60
2022/08/14 08:30:45;;;;;;;11.25;7.10;;;24.40;72.90;;;;;;5049713;28;20493;-59
2022/08/14 08:33:12;;;;;;;;;;;24.50;72.60;;;;;;5048955;28;20064;-60
2022/08/14 08:35:38;;;;;;;10.30;7.35;;;24.60;72.20;;;;;;5049703;28;19908;-60
2022/08/14 08:38:09;;;;;;;9.77;6.43;;;24.70;71.60;;;;;;5050566;28;20021;-60
2022/08/14 08:40:40;;;;;;;9.32;6.90;;;24.70;70.90;;;;;;5050363;28;20470;-60
2022/08/14 08:43:33;;;;;;;8.50;6.25;;;24.80;70.90;;;;;;5049469;28;20035;-60
2022/08/14 08:46:05;;;;;;;9.25;5.85;;;24.90;70.20;;;;;;5039074;28;20060;-60
2022/08/14 08:48:58;;;;;;;8.00;6.43;;;25.00;70.00;;;;;;5050145;28;20031;-60
2022/08/14 08:51:37;;;;;;;8.90;6.40;;;25.10;70.20;;;;;;5048067;28;20539;-62
2022/08/14 08:54:07;;;;;;;8.95;6.20;;;25.20;69.60;;;;;;5047938;28;20032;-62
2022/08/14 08:56:37;;;;;;;8.27;5.65;;;25.30;69.20;;;;;;5048232;28;20112;-60
2022/08/14 08:59:27;;;;;;;9.15;6.05;;;25.40;68.90;;;;;;5047774;28;20036;-61
2022/08/14 09:02:00;;;;;;;8.65;6.13;;;25.60;68.30;;;;;;5049318;28;20037;-61
2022/08/14 09:04:33;;;;;;;11.40;7.38;;;25.70;68.00;;;;;;5047191;28;20465;-61
2022/08/14 09:06:59;;;;;;;9.60;7.05;;;25.80;67.60;;;;;;5048452;28;20472;-63
2022/08/14 09:09:29;;;;;;;8.93;6.45;;;25.80;66.70;;;;;;5049534;28;20017;-62
2022/08/14 09:11:56;;;;;;;8.18;5.90;;;25.80;66.90;;;;;;5048559;28;20430;-63
2022/08/14 09:14:24;;;;;;;8.05;6.45;;;25.90;66.80;;;;;;5050698;28;20547;-63
2022/08/14 09:16:50;;;;;;;11.15;7.75;;;26.00;66.40;;;;;;5047627;28;20021;-64
2022/08/14 09:19:17;;;;;;;7.82;6.00;;;26.00;65.90;;;;;;5049967;28;20047;-62
2022/08/14 09:21:43;;;;;;;8.13;5.80;;;26.10;66.30;;;;;;5047929;28;20032;-62
2022/08/14 09:24:09;;;;;;;8.10;5.97;;;26.20;66.40;;;;;;5049716;28;20021;-65
2022/08/14 09:26:36;;;;;;;8.10;6.07;;;26.20;66.30;;;;;;5047714;28;20025;-63
2022/08/14 09:29:03;;;;;;;7.45;6.00;;;26.30;66.10;;;;;;5045853;28;20908;-61
2022/08/14 09:31:31;;;;;;;9.85;6.20;;;26.40;64.80;;;;;;5049578;28;20030;-65
2022/08/14 09:34:11;;;;;;;7.72;5.65;;;26.50;64.50;;;;;;5049070;28;20024;-61
2022/08/14 09:36:52;;;;;;;8.68;6.35;;;26.60;63.80;;;;;;5049751;28;20389;-60
2022/08/14 09:40:04;;;;;;;8.48;6.35;;;26.70;62.50;;;;;;5049847;28;20108;-59
2022/08/14 09:42:36;;;;;;;7.68;6.05;;;26.70;63.20;;;;;;5013808;28;20482;-60
2022/08/14 09:45:17;;;;;;;8.45;6.28;;;26.80;63.30;;;;;;5048975;28;20078;-59
2022/08/14 09:47:56;;;;;;;8.63;6.45;;;26.90;62.80;;;;;;5050031;28;20104;-59
2022/08/14 09:50:27;;;;;;;7.75;5.93;;;27.00;63.00;;;;;;5049237;28;20048;-59
2022/08/14 09:53:05;;;;;;;8.68;6.00;;;27.00;62.10;;;;;;5049950;28;20470;-60
2022/08/14 09:55:33;;;;;;;7.70;6.20;;;27.00;60.90;;;;;;5049407;28;20032;-61
2022/08/14 09:58:13;;;;;;;7.13;5.65;;;27.10;61.90;;;;;;5047025;28;20033;-60
2022/08/14 10:00:52;;;;;;;8.77;5.93;;;27.10;61.40;;;;;;5049397;28;20075;-61
2022/08/14 10:03:29;;;;;;;6.97;5.43;;;27.20;61.90;;;;;;5049453;28;20794;-59
2022/08/14 10:06:06;;;;;;;8.65;5.95;;;27.30;61.20;;;;;;5048594;28;20024;-59
2022/08/14 10:08:44;;;;;;;9.00;6.47;;;27.30;61.00;;;;;;5049517;28;20032;-60
2022/08/14 10:11:16;;;;;;;8.60;6.72;;;27.30;60.00;;;;;;5048911;28;20028;-60
2022/08/14 10:13:42;;;;;;;8.50;5.90;;;27.30;59.50;;;;;;5039709;28;20033;-62
2022/08/14 10:16:08;;;;;;;7.60;5.90;;;27.30;59.80;;;;;;5042639;28;20170;-60
2022/08/14 10:18:33;;;;;;;6.22;5.00;;;27.40;59.30;;;;;;5048323;28;20097;-60
2022/08/14 10:21:00;;;;;;;8.13;5.47;;;27.50;59.00;;;;;;5046485;28;20041;-60
2022/08/14 10:23:38;;;;;;;8.85;6.75;;;27.50;59.10;;;;;;5039862;28;20778;-60
2022/08/14 10:26:05;;;;;;;8.77;6.82;;;27.60;59.90;;;;;;5049753;28;20017;-60
2022/08/14 10:29:23;;;;;;;6.10;4.90;;;27.70;59.20;;;;;;5043868;28;20086;-60
2022/08/14 10:31:56;;;;;;;8.80;6.85;;;27.70;59.60;;;;;;5044922;28;20068;-60
2022/08/14 10:34:23;;;;;;;6.85;5.40;;;27.80;59.30;;;;;;5049666;28;20112;-59
2022/08/14 10:36:49;;;;;;;8.98;5.60;;;27.90;59.10;;;;;;5050666;28;20029;-61
2022/08/14 10:39:24;;;;;;;7.28;5.63;;;28.00;58.10;;;;;;5050961;28;20085;-61
2022/08/14 10:42:04;;;;;;;6.75;5.30;;;28.00;56.10;;;;;;5050656;28;20103;-60
2022/08/14 10:44:37;;;;;;;8.82;5.63;;;28.00;56.30;;;;;;5050105;28;20033;-59
2022/08/14 10:47:08;;;;;;;7.63;6.03;;;28.00;57.00;;;;;;5050698;28;20074;-61
2022/08/14 10:49:34;;;;;;;7.43;5.20;;;28.00;56.20;;;;;;5051389;28;20027;-65
2022/08/14 10:52:09;;;;;;;8.80;5.30;;;28.10;55.80;;;;;;5051184;28;20033;-64
2022/08/14 10:54:43;;;;;;;7.72;5.85;;;28.10;55.10;;;;;;5050496;28;20036;-62
2022/08/14 10:57:26;;;;;;;9.15;5.40;;;28.20;55.50;;;;;;5051328;28;20047;-61
2022/08/14 10:59:57;;;;;;;6.88;4.97;;;28.20;54.70;;;;;;5051152;28;20527;-63
2022/08/14 11:02:36;;;;;;;7.47;5.05;;;28.20;54.80;;;;;;5050497;28;20167;-63
2022/08/14 11:05:12;;;;;;;6.78;5.07;;;28.20;55.00;;;;;;5051147;28;20386;-62
2022/08/14 11:07:42;;;;;;;5.85;4.43;;;28.20;54.40;;;;;;5050935;28;20017;-63
2022/08/14 11:10:14;;;;;;;6.72;5.07;;;28.30;54.90;;;;;;5051290;28;20025;-62
2022/08/14 11:12:46;;;;;;;6.03;4.93;;;28.30;54.80;;;;;;5050785;28;20032;-62
2022/08/14 11:15:15;;;;;;;7.38;5.63;;;28.50;55.00;;;;;;5050294;28;20358;-61
2022/08/14 11:17:41;;;;;;;6.13;4.85;;;28.50;55.10;;;;;;5051293;28;20013;-62
2022/08/14 11:20:09;;;;;;;7.68;5.60;;;28.50;54.30;;;;;;5050820;28;20159;-65
2022/08/14 11:22:40;;;;;;;7.68;5.35;;;28.60;53.60;;;;;;5050282;28;20033;-63
2022/08/14 11:25:07;;;;;;;6.47;4.72;;;28.60;53.90;;;;;;5051159;28;20032;-65
2022/08/14 11:27:34;;;;;;;8.27;5.45;;;28.70;53.80;;;;;;5050748;28;20079;-60
2022/08/14 11:30:03;;;;;;;7.22;5.05;;;28.70;53.80;;;;;;5050199;28;20139;-61
2022/08/14 11:32:30;;;;;;;6.18;4.55;;;28.60;54.10;;;;;;5050644;28;20112;-60
2022/08/14 11:34:57;;;;;;;6.45;4.57;;;28.70;54.40;;;;;;5050542;28;20017;-60
2022/08/14 11:37:23;;;;;;;7.03;4.68;;;28.70;54.40;;;;;;5050320;28;20032;-60
2022/08/14 11:39:48;;;;;;;6.20;5.05;;;28.70;54.00;;;;;;5050230;28;20380;-60
2022/08/14 11:42:25;;;;;;;6.95;5.07;;;28.80;53.80;;;;;;5049427;28;20029;-59
2022/08/14 11:44:55;;;;;;;8.75;5.97;;;28.90;53.80;;;;;;5050094;28;20576;-61
2022/08/14 11:47:20;;;;;;;7.57;4.90;;;28.90;51.80;;;;;;5050507;28;20032;-62
2022/08/14 11:49:47;;;;;;;6.18;4.78;;;28.90;52.70;;;;;;5052003;28;20020;-64
2022/08/14 11:52:17;;;;;;;6.68;5.00;;;28.90;53.10;;;;;;5053363;28;20029;-63
2022/08/14 11:54:45;;;;;;;6.28;4.63;;;28.90;52.40;;;;;;5054364;28;20029;-61
2022/08/14 11:57:18;;;;;;;5.55;4.30;;;29.00;52.50;;;;;;5052375;28;20887;-61
2022/08/14 11:59:44;;;;;;;7.50;5.15;;;29.10;52.30;;;;;;5054008;28;20376;-61
2022/08/14 12:02:14;;;;;;;6.43;4.80;;;29.20;51.60;;;;;;5054025;28;20039;-60
2022/08/14 12:04:50;;;;;;;6.60;4.90;;;29.40;51.40;;;;;;5053771;28;20013;-60
2022/08/14 12:07:17;;;;;;;6.68;4.90;;;29.70;51.10;;;;;;5054188;28;20028;-59
2022/08/14 12:09:44;;;;;;;5.07;3.85;;;29.80;51.10;;;;;;5054071;28;20017;-60
2022/08/14 12:12:13;;;;;;;5.50;3.78;;;29.80;50.40;;;;;;5053318;28;20070;-60
2022/08/14 12:14:55;;;;;;;5.78;4.55;;;29.90;50.40;;;;;;5053711;28;20029;-60
2022/08/14 12:17:25;;;;;;;6.22;3.92;;;30.00;50.20;;;;;;5053598;28;20044;-61
2022/08/14 12:20:04;;;;;;;7.45;4.50;;;30.10;50.10;;;;;;5051658;28;20086;-60
2022/08/14 12:22:44;;;;;;;5.93;4.15;;;30.10;48.90;;;;;;5053598;28;20059;-60
2022/08/14 12:25:13;;;;;;;;;;;30.20;49.70;;;;;;5053520;28;20381;-62
2022/08/14 12:27:52;;;;;;;5.40;3.83;;;30.30;49.10;;;;;;5053757;28;20403;-59
2022/08/14 12:30:34;;;;;;;4.55;3.85;;;30.50;48.10;;;;;;5053807;28;20032;-63
2022/08/14 12:33:02;;;;;;;5.70;4.07;;;30.60;47.60;;;;;;5053137;28;20484;-61
2022/08/14 12:35:38;;;;;;;5.57;4.03;;;30.70;47.50;;;;;;5053453;28;20112;-65
2022/08/14 12:38:03;;;;;;;5.68;4.07;;;30.80;47.40;;;;;;5053220;28;20040;-65
2022/08/14 12:40:30;;;;;;;5.00;3.50;;;30.80;47.50;;;;;;5052592;28;20045;-62
2022/08/14 12:43:02;;;;;;;6.65;4.32;;;30.80;47.70;;;;;;5053713;28;20025;-64
2022/08/14 12:45:33;;;;;;;5.70;4.15;;;30.70;47.10;;;;;;5053715;28;20017;-63
2022/08/14 12:48:01;;;;;;;5.57;4.10;;;30.60;47.30;;;;;;5052764;28;20481;-63
2022/08/14 12:50:40;;;;;;;5.00;4.15;;;30.50;46.20;;;;;;5053679;28;20052;-60
2022/08/14 12:53:09;;;;;;;5.95;4.35;;;30.40;47.20;;;;;;5053271;28;20124;-63
2022/08/14 12:55:36;;;;;;;4.50;3.72;;;30.40;47.60;;;;;;5053467;28;20017;-65
2022/08/14 12:58:04;;;;;;;5.45;3.72;;;30.40;47.60;;;;;;5053092;28;20025;-62
2022/08/14 13:00:32;;;;;;;5.78;3.40;;;30.50;47.00;;;;;;5052406;28;20029;-62
2022/08/14 13:02:58;;;;;;;4.65;3.58;;;30.40;47.10;;;;;;5053149;28;20469;-64
2022/08/14 13:05:28;;;;;;;5.43;3.75;;;30.60;47.50;;;;;;5053097;28;20051;-64